createdAt,value
2023-05-21T00:00:17.811Z,30.12
2023-05-21T00:01:17.867Z,30.10
2023-05-21T00:02:18.020Z,30.14
2023-05-21T00:03:18.022Z,30.10
2023-05-21T00:04:18.002Z,30.12
2023-05-21T00:05:18.021Z,30.08
2023-05-21T00:06:18.075Z,30.18
2023-05-21T00:07:18.065Z,30.11
2023-05-21T00:08:18.132Z,30.08
2023-05-21T00:09:18.128Z,30.14
2023-05-21T00:10:18.147Z,30.14
2023-05-21T00:11:18.199Z,30.14
2023-05-21T00:12:18.202Z,30.13
2023-05-21T00:13:18.265Z,30.11
2023-05-21T00:14:18.327Z,30.11
2023-05-21T00:15:18.336Z,30.08
2023-05-21T00:16:18.664Z,30.14
2023-05-21T00:17:18.635Z,30.10
2023-05-21T00:18:18.407Z,30.08
2023-05-21T00:19:18.439Z,30.12
2023-05-21T00:20:18.475Z,30.10
2023-05-21T00:21:18.470Z,30.13
2023-05-21T00:22:18.497Z,30.11
2023-05-21T00:23:18.524Z,30.14
2023-05-21T00:24:18.592Z,30.08
2023-05-21T00:25:18.594Z,30.13
2023-05-21T00:26:18.656Z,30.15
2023-05-21T00:27:18.666Z,30.12
2023-05-21T00:28:18.716Z,30.11
2023-05-21T00:29:18.740Z,30.11
2023-05-21T00:30:18.740Z,30.11
2023-05-21T00:31:18.820Z,30.18
2023-05-21T00:32:18.855Z,30.15
2023-05-21T00:33:18.853Z,30.17
2023-05-21T00:34:18.871Z,30.14
2023-05-21T00:35:18.912Z,30.14
2023-05-21T00:36:18.937Z,30.21
2023-05-21T00:37:18.988Z,30.17
2023-05-21T00:38:18.994Z,30.18
2023-05-21T00:39:19.056Z,30.19
2023-05-21T00:40:19.064Z,30.14
2023-05-21T00:41:19.117Z,30.17
2023-05-21T00:42:19.185Z,30.14
2023-05-21T00:43:19.184Z,30.14
2023-05-21T00:44:19.189Z,30.15
2023-05-21T00:45:19.245Z,30.16
2023-05-21T00:46:19.288Z,30.18
2023-05-21T00:47:19.247Z,30.18
2023-05-21T00:48:19.363Z,30.15
2023-05-21T00:49:19.316Z,30.16
2023-05-21T00:50:19.367Z,30.19
2023-05-21T00:51:19.436Z,30.16
2023-05-21T00:52:19.431Z,30.16
2023-05-21T00:53:19.456Z,30.19
2023-05-21T00:54:19.505Z,30.15
2023-05-21T00:55:19.574Z,30.19
2023-05-21T00:56:19.580Z,30.21
2023-05-21T00:57:19.575Z,30.13
2023-05-21T00:58:19.634Z,30.21
2023-05-21T00:59:19.656Z,30.12
2023-05-21T01:00:19.700Z,30.15
2023-05-21T01:01:19.762Z,30.19
2023-05-21T01:02:19.819Z,30.18
2023-05-21T01:03:19.841Z,30.18
2023-05-21T01:04:19.790Z,30.16
2023-05-21T01:05:19.837Z,30.21
2023-05-21T01:06:19.890Z,30.15
2023-05-21T01:07:19.915Z,30.18
2023-05-21T01:08:19.920Z,30.19
2023-05-21T01:09:19.976Z,30.20
2023-05-21T01:10:19.979Z,30.13
2023-05-21T01:11:20.043Z,30.13
2023-05-21T01:12:20.050Z,30.18
2023-05-21T01:13:20.098Z,30.18
2023-05-21T01:14:20.101Z,30.15
2023-05-21T01:15:20.177Z,30.19
2023-05-21T01:16:20.191Z,30.16
2023-05-21T01:17:20.237Z,30.20
2023-05-21T01:18:20.281Z,30.17
2023-05-21T01:19:20.330Z,30.16
2023-05-21T01:20:20.329Z,30.16
2023-05-21T01:21:20.319Z,30.18
2023-05-21T01:22:20.362Z,30.16
2023-05-21T01:23:20.423Z,30.16
2023-05-21T01:24:20.438Z,30.19
2023-05-21T01:25:20.488Z,30.23
2023-05-21T01:26:20.499Z,30.19
2023-05-21T01:27:20.615Z,30.19
2023-05-21T01:28:20.571Z,30.18
2023-05-21T01:29:20.560Z,30.20
2023-05-21T01:30:20.627Z,30.18
2023-05-21T01:31:20.683Z,30.22
2023-05-21T01:32:20.687Z,30.22
2023-05-21T01:33:20.819Z,30.20
2023-05-21T01:34:20.949Z,30.15
2023-05-21T01:35:20.756Z,30.13
2023-05-21T01:36:20.827Z,30.18
2023-05-21T01:37:20.870Z,30.18
2023-05-21T01:38:20.884Z,30.18
2023-05-21T01:39:20.957Z,30.24
2023-05-21T01:40:20.995Z,30.20
2023-05-21T01:41:21.015Z,30.21
2023-05-21T01:42:21.074Z,30.20
2023-05-21T01:43:21.072Z,30.21
2023-05-21T01:44:21.141Z,30.20
2023-05-21T01:45:21.197Z,30.16
2023-05-21T01:46:21.306Z,30.20
2023-05-21T01:47:21.322Z,30.23
2023-05-21T01:48:21.285Z,30.21
2023-05-21T01:49:21.330Z,30.23
2023-05-21T01:50:21.377Z,30.20
2023-05-21T01:51:21.429Z,30.21
2023-05-21T01:52:21.384Z,30.17
2023-05-21T01:53:21.450Z,30.23
2023-05-21T01:54:21.515Z,30.21
2023-05-21T01:55:21.524Z,30.20
2023-05-21T01:56:21.582Z,30.24
2023-05-21T01:57:21.644Z,30.23
2023-05-21T01:58:21.629Z,30.23
2023-05-21T01:59:21.686Z,30.25
2023-05-21T02:00:21.706Z,30.24
2023-05-21T02:01:21.776Z,30.22
2023-05-21T02:02:21.826Z,30.21
2023-05-21T02:03:22.048Z,30.21
2023-05-21T02:04:21.891Z,30.18
2023-05-21T02:05:21.891Z,30.20
2023-05-21T02:06:21.950Z,30.22
2023-05-21T02:07:22.028Z,30.21
2023-05-21T02:08:22.015Z,30.24
2023-05-21T02:09:22.083Z,30.23
2023-05-21T02:10:22.135Z,30.20
2023-05-21T02:11:22.130Z,30.23
2023-05-21T02:12:22.201Z,30.24
2023-05-21T02:13:24.249Z,30.22
2023-05-21T02:14:22.221Z,30.24
2023-05-21T02:15:22.209Z,30.20
2023-05-21T02:16:22.270Z,30.26
2023-05-21T02:17:22.202Z,30.22
2023-05-21T02:18:22.186Z,30.24
2023-05-21T02:19:22.335Z,30.24
2023-05-21T02:20:22.317Z,30.24
2023-05-21T02:21:22.240Z,30.25
2023-05-21T02:22:22.155Z,30.22
2023-05-21T02:23:22.178Z,30.26
2023-05-21T02:24:22.163Z,30.24
2023-05-21T02:25:22.206Z,30.22
2023-05-21T02:26:22.607Z,30.25
2023-05-21T02:27:22.156Z,30.24
2023-05-21T02:28:22.112Z,30.22
2023-05-21T02:29:22.134Z,30.22
2023-05-21T02:30:22.126Z,30.26
2023-05-21T02:31:22.115Z,30.25
2023-05-21T02:32:22.159Z,30.24
2023-05-21T02:33:22.140Z,30.26
2023-05-21T02:34:22.318Z,30.26
2023-05-21T02:35:22.105Z,30.28
2023-05-21T02:36:22.105Z,30.22
2023-05-21T02:37:22.067Z,30.26
2023-05-21T02:38:22.071Z,30.20
2023-05-21T02:39:22.037Z,30.25
2023-05-21T02:40:22.079Z,30.25
2023-05-21T02:41:22.043Z,30.28
2023-05-21T02:42:22.031Z,30.25
2023-05-21T02:43:22.046Z,30.26
2023-05-21T02:44:22.059Z,30.27
2023-05-21T02:45:22.063Z,30.29
2023-05-21T02:46:22.105Z,30.25
2023-05-21T02:47:22.147Z,30.27
2023-05-21T02:48:22.211Z,30.25
2023-05-21T02:49:22.232Z,30.24
2023-05-21T02:50:22.313Z,30.31
2023-05-21T02:51:22.322Z,30.27
2023-05-21T02:52:22.385Z,30.27
2023-05-21T02:53:22.430Z,30.26
2023-05-21T02:54:22.480Z,30.26
2023-05-21T02:55:22.539Z,30.26
2023-05-21T02:56:22.616Z,30.29
2023-05-21T02:57:22.617Z,30.29
2023-05-21T02:58:22.659Z,30.29
2023-05-21T02:59:22.708Z,30.26
2023-05-21T03:00:22.784Z,30.29
2023-05-21T03:01:22.881Z,30.27
2023-05-21T03:02:23.050Z,30.30
2023-05-21T03:03:23.089Z,30.31
2023-05-21T03:04:23.021Z,30.33
2023-05-21T03:05:23.062Z,30.30
2023-05-21T03:06:23.084Z,30.33
2023-05-21T03:07:23.128Z,30.30
2023-05-21T03:08:23.200Z,30.27
2023-05-21T03:09:23.246Z,30.31
2023-05-21T03:10:23.299Z,30.31
2023-05-21T03:11:23.372Z,30.33
2023-05-21T03:12:23.434Z,30.34
2023-05-21T03:13:23.544Z,30.34
2023-05-21T03:14:23.501Z,30.34
2023-05-21T03:15:23.553Z,30.38
2023-05-21T03:16:23.628Z,30.33
2023-05-21T03:17:23.835Z,30.31
2023-05-21T03:18:23.664Z,30.32
2023-05-21T03:19:23.760Z,30.31
2023-05-21T03:20:23.801Z,30.32
2023-05-21T03:21:23.885Z,30.34
2023-05-21T03:22:23.924Z,30.34
2023-05-21T03:23:23.969Z,30.32
2023-05-21T03:24:24.013Z,30.32
2023-05-21T03:25:24.183Z,30.33
2023-05-21T03:26:24.130Z,30.31
2023-05-21T03:27:24.236Z,30.35
2023-05-21T03:28:24.240Z,30.29
2023-05-21T03:29:24.278Z,30.31
2023-05-21T03:30:24.325Z,30.29
2023-05-21T03:31:24.411Z,30.34
2023-05-21T03:32:24.493Z,30.39
2023-05-21T03:33:24.436Z,30.35
2023-05-21T03:34:24.549Z,30.35
2023-05-21T03:35:24.602Z,30.36
2023-05-21T03:36:24.629Z,30.32
2023-05-21T03:37:24.677Z,30.38
2023-05-21T03:38:24.727Z,30.31
2023-05-21T03:39:24.795Z,30.39
2023-05-21T03:40:24.862Z,30.35
2023-05-21T03:41:24.911Z,30.34
2023-05-21T03:42:24.975Z,30.34
2023-05-21T03:43:25.024Z,30.35
2023-05-21T03:44:25.070Z,30.34
2023-05-21T03:45:25.136Z,30.29
2023-05-21T03:46:25.238Z,30.35
2023-05-21T03:47:25.323Z,30.34
2023-05-21T03:48:25.311Z,30.35
2023-05-21T03:49:25.370Z,30.31
2023-05-21T03:50:25.419Z,30.35
2023-05-21T03:51:25.481Z,30.35
2023-05-21T03:52:25.538Z,30.35
2023-05-21T03:53:25.606Z,30.35
2023-05-21T03:54:25.653Z,30.36
2023-05-21T03:55:25.729Z,30.34
2023-05-21T03:56:25.773Z,30.31
2023-05-21T03:57:25.843Z,30.35
2023-05-21T03:58:26.011Z,30.34
2023-05-21T03:59:25.941Z,30.38
2023-05-21T04:00:25.997Z,30.38
2023-05-21T04:01:26.072Z,30.36
2023-05-21T04:02:26.168Z,30.31
2023-05-21T04:03:26.302Z,30.41
2023-05-21T04:04:26.219Z,30.31
2023-05-21T04:05:26.920Z,30.32
2023-05-21T04:06:26.301Z,30.36
2023-05-21T04:07:26.357Z,30.31
2023-05-21T04:08:26.425Z,30.35
2023-05-21T04:09:26.490Z,30.34
2023-05-21T04:10:26.536Z,30.29
2023-05-21T04:11:26.647Z,30.31
2023-05-21T04:12:26.698Z,30.32
2023-05-21T04:13:26.756Z,30.28
2023-05-21T04:14:26.817Z,30.31
2023-05-21T04:15:26.886Z,30.32
2023-05-21T04:16:26.937Z,30.28
2023-05-21T04:17:27.077Z,30.25
2023-05-21T04:18:26.994Z,30.27
2023-05-21T04:19:27.164Z,30.28
2023-05-21T04:20:27.123Z,30.24
2023-05-21T04:21:27.397Z,30.27
2023-05-21T04:22:27.234Z,30.25
2023-05-21T04:23:27.247Z,30.23
2023-05-21T04:24:27.298Z,30.23
2023-05-21T04:25:27.356Z,30.27
2023-05-21T04:26:27.407Z,30.27
2023-05-21T04:27:27.434Z,30.21
2023-05-21T04:28:27.529Z,30.20
2023-05-21T04:29:27.564Z,30.24
2023-05-21T04:30:27.606Z,30.21
2023-05-21T04:31:27.684Z,30.19
2023-05-21T04:32:27.721Z,30.21
2023-05-21T04:33:27.764Z,30.23
2023-05-21T04:34:27.843Z,30.24
2023-05-21T04:35:27.842Z,30.17
2023-05-21T04:36:27.888Z,30.17
2023-05-21T04:37:27.968Z,30.19
2023-05-21T04:38:28.014Z,30.13
2023-05-21T04:39:28.068Z,30.16
2023-05-21T04:40:28.088Z,30.17
2023-05-21T04:41:28.122Z,30.16
2023-05-21T04:42:28.197Z,30.15
2023-05-21T04:43:28.267Z,30.15
2023-05-21T04:44:28.310Z,30.16
2023-05-21T04:45:28.357Z,30.12
2023-05-21T04:46:28.504Z,30.15
2023-05-21T04:47:28.455Z,30.15
2023-05-21T04:48:28.439Z,30.09
2023-05-21T04:49:28.485Z,30.11
2023-05-21T04:50:28.563Z,30.12
2023-05-21T04:51:28.556Z,30.09
2023-05-21T04:52:28.595Z,30.09
2023-05-21T04:53:28.609Z,30.09
2023-05-21T04:54:28.676Z,30.08
2023-05-21T04:55:28.689Z,30.05
2023-05-21T04:56:28.751Z,30.10
2023-05-21T04:57:28.807Z,30.05
2023-05-21T04:58:28.882Z,30.07
2023-05-21T04:59:28.866Z,30.05
2023-05-21T05:00:28.943Z,30.02
2023-05-21T05:01:29.008Z,29.99
2023-05-21T05:02:28.998Z,30.03
2023-05-21T05:03:29.101Z,30.00
2023-05-21T05:04:29.068Z,30.00
2023-05-21T05:05:29.064Z,29.95
2023-05-21T05:06:29.122Z,29.93
2023-05-21T05:07:29.126Z,30.00
2023-05-21T05:08:29.197Z,29.95
2023-05-21T05:09:29.204Z,29.98
2023-05-21T05:10:29.257Z,29.99
2023-05-21T05:11:29.245Z,29.92
2023-05-21T05:12:29.250Z,29.91
2023-05-21T05:13:29.345Z,29.91
2023-05-21T05:14:29.412Z,29.88
2023-05-21T05:15:29.393Z,29.91
2023-05-21T05:16:29.560Z,29.84
2023-05-21T05:17:29.481Z,29.84
2023-05-21T05:18:29.480Z,29.83
2023-05-21T05:19:29.749Z,29.83
2023-05-21T05:20:29.524Z,29.86
2023-05-21T05:21:29.597Z,29.83
2023-05-21T05:22:29.595Z,29.86
2023-05-21T05:23:29.664Z,29.86
2023-05-21T05:24:29.640Z,29.90
2023-05-21T05:25:29.718Z,29.80
2023-05-21T05:26:29.753Z,29.88
2023-05-21T05:27:29.772Z,29.85
2023-05-21T05:28:29.799Z,29.86
2023-05-21T05:29:29.848Z,29.83
2023-05-21T05:30:29.866Z,29.75
2023-05-21T05:31:29.935Z,29.85
2023-05-21T05:32:29.946Z,29.79
2023-05-21T05:33:29.987Z,29.85
2023-05-21T05:34:29.990Z,29.80
2023-05-21T05:35:29.986Z,29.85
2023-05-21T05:36:30.055Z,29.80
2023-05-21T05:37:30.113Z,29.75
2023-05-21T05:38:30.067Z,29.78
2023-05-21T05:39:30.166Z,29.78
2023-05-21T05:40:30.170Z,29.78
2023-05-21T05:41:30.169Z,29.78
2023-05-21T05:42:30.254Z,29.76
2023-05-21T05:43:30.260Z,29.77
2023-05-21T05:44:30.260Z,29.80
2023-05-21T05:45:30.354Z,29.76
2023-05-21T05:46:30.340Z,29.77
2023-05-21T05:47:30.379Z,29.76
2023-05-21T05:48:30.390Z,29.76
2023-05-21T05:49:30.406Z,29.76
2023-05-21T05:50:30.411Z,29.69
2023-05-21T05:51:30.365Z,29.70
2023-05-21T05:52:30.403Z,29.75
2023-05-21T05:53:30.420Z,29.70
2023-05-21T05:54:30.500Z,29.65
2023-05-21T05:55:30.537Z,29.63
2023-05-21T05:56:30.575Z,29.63
2023-05-21T05:57:30.591Z,29.59
2023-05-21T05:58:30.593Z,29.52
2023-05-21T05:59:30.564Z,29.49
2023-05-21T06:00:30.605Z,29.51
2023-05-21T06:01:30.588Z,29.48
2023-05-21T06:02:30.651Z,29.50
2023-05-21T06:04:30.595Z,29.40
2023-05-21T06:05:30.649Z,29.43
2023-05-21T06:06:30.643Z,29.37
2023-05-21T06:07:30.729Z,29.34
2023-05-21T06:08:30.999Z,29.32
2023-05-21T06:09:30.593Z,29.30
2023-05-21T06:10:30.661Z,29.24
2023-05-21T06:11:30.695Z,29.23
2023-05-21T06:12:30.781Z,29.18
2023-05-21T06:13:30.801Z,29.17
2023-05-21T06:14:30.825Z,29.12
2023-05-21T06:15:30.916Z,29.15
2023-05-21T06:16:31.026Z,29.02
2023-05-21T06:17:31.108Z,29.01
2023-05-21T06:18:31.096Z,29.08
2023-05-21T06:19:31.277Z,29.08
2023-05-21T06:20:31.219Z,29.08
2023-05-21T06:21:31.224Z,29.04
2023-05-21T06:22:31.299Z,29.01
2023-05-21T06:23:31.375Z,28.97
2023-05-21T06:24:31.373Z,29.00
2023-05-21T06:25:31.458Z,28.97
2023-05-21T06:26:31.466Z,28.96
2023-05-21T06:27:31.574Z,28.98
2023-05-21T06:28:31.722Z,28.98
2023-05-21T06:29:31.801Z,28.95
2023-05-21T06:30:31.631Z,28.95
2023-05-21T06:31:31.664Z,28.93
2023-05-21T06:32:31.858Z,28.89
2023-05-21T06:33:31.855Z,28.83
2023-05-21T06:34:31.841Z,28.86
2023-05-21T06:35:31.832Z,28.87
2023-05-21T06:36:31.839Z,28.95
2023-05-21T06:37:31.889Z,28.89
2023-05-21T06:38:31.904Z,28.85
2023-05-21T06:39:31.930Z,28.88
2023-05-21T06:40:31.978Z,28.90
2023-05-21T06:41:31.992Z,28.88
2023-05-21T06:42:32.058Z,28.92
2023-05-21T06:43:32.018Z,28.95
2023-05-21T06:44:32.136Z,28.94
2023-05-21T06:45:32.417Z,28.91
2023-05-21T06:46:32.228Z,28.91
2023-05-21T06:47:32.137Z,28.90
2023-05-21T06:48:32.173Z,28.91
2023-05-21T06:49:32.188Z,28.87
2023-05-21T06:50:32.261Z,28.86
2023-05-21T06:51:32.240Z,28.86
2023-05-21T06:52:32.271Z,28.84
2023-05-21T06:53:32.266Z,28.90
2023-05-21T06:54:32.326Z,28.86
2023-05-21T06:55:32.313Z,28.86
2023-05-21T06:56:32.337Z,28.88
2023-05-21T06:57:32.348Z,28.86
2023-05-21T06:58:32.341Z,28.85
2023-05-21T06:59:32.418Z,28.88
2023-05-21T07:00:32.377Z,28.88
2023-05-21T07:01:32.451Z,28.88
2023-05-21T07:02:32.576Z,28.87
2023-05-21T07:03:32.632Z,28.88
2023-05-21T07:04:32.438Z,28.82
2023-05-21T07:05:32.596Z,28.82
2023-05-21T07:06:32.453Z,28.81
2023-05-21T07:07:32.466Z,28.80
2023-05-21T07:08:32.515Z,28.80
2023-05-21T07:09:32.507Z,28.76
2023-05-21T07:10:32.497Z,28.76
2023-05-21T07:11:32.533Z,28.72
2023-05-21T07:12:32.499Z,28.78
2023-05-21T07:13:32.513Z,28.79
2023-05-21T07:14:32.558Z,28.75
2023-05-21T07:15:32.534Z,28.78
2023-05-21T07:16:32.586Z,28.72
2023-05-21T07:17:32.571Z,28.71
2023-05-21T07:18:32.530Z,28.71
2023-05-21T07:19:32.714Z,28.74
2023-05-21T07:20:32.555Z,28.70
2023-05-21T07:21:32.603Z,28.72
2023-05-21T07:22:32.564Z,28.69
2023-05-21T07:23:32.536Z,28.69
2023-05-21T07:24:32.575Z,28.61
2023-05-21T07:25:32.579Z,28.62
2023-05-21T07:26:32.596Z,28.62
2023-05-21T07:27:32.637Z,28.60
2023-05-21T07:28:32.680Z,28.59
2023-05-21T07:29:32.764Z,28.60
2023-05-21T07:30:32.800Z,28.53
2023-05-21T07:31:32.887Z,28.52
2023-05-21T07:32:32.919Z,28.52
2023-05-21T07:33:32.983Z,28.45
2023-05-21T07:34:33.074Z,28.43
2023-05-21T07:35:33.072Z,28.38
2023-05-21T07:36:33.136Z,28.39
2023-05-21T07:37:33.189Z,28.36
2023-05-21T07:38:33.241Z,28.38
2023-05-21T07:39:33.297Z,28.34
2023-05-21T07:40:33.367Z,28.31
2023-05-21T07:41:33.425Z,28.35
2023-05-21T07:42:33.425Z,28.33
2023-05-21T07:43:33.506Z,28.34
2023-05-21T07:44:33.574Z,28.32
2023-05-21T07:45:33.578Z,28.30
2023-05-21T07:46:33.667Z,28.35
2023-05-21T07:47:33.653Z,28.29
2023-05-21T07:48:35.419Z,28.29
2023-05-21T07:49:33.704Z,28.21
2023-05-21T07:50:33.891Z,28.29
2023-05-21T07:51:33.816Z,28.27
2023-05-21T07:52:33.888Z,28.25
2023-05-21T07:53:33.904Z,28.24
2023-05-21T07:54:33.916Z,28.28
2023-05-21T07:55:33.950Z,28.25
2023-05-21T07:56:33.985Z,28.23
2023-05-21T07:57:33.982Z,28.18
2023-05-21T07:58:34.002Z,28.23
2023-05-21T07:59:34.052Z,28.18
2023-05-21T08:00:34.019Z,28.19
2023-05-21T08:01:34.062Z,28.19
2023-05-21T08:02:34.211Z,28.19
2023-05-21T08:03:34.256Z,28.15
2023-05-21T08:04:34.184Z,28.18
2023-05-21T08:05:34.194Z,28.25
2023-05-21T08:06:34.172Z,28.24
2023-05-21T08:07:34.208Z,28.22
2023-05-21T08:08:34.250Z,28.24
2023-05-21T08:09:34.220Z,28.24
2023-05-21T08:10:34.256Z,28.24
2023-05-21T08:11:34.254Z,28.25
2023-05-21T08:12:34.291Z,28.26
2023-05-21T08:13:34.288Z,28.28
2023-05-21T08:14:34.323Z,28.20
2023-05-21T08:15:34.524Z,28.22
2023-05-21T08:16:34.484Z,28.20
2023-05-21T08:17:34.472Z,28.22
2023-05-21T08:18:34.394Z,28.19
2023-05-21T08:19:34.505Z,28.18
2023-05-21T08:20:34.429Z,28.17
2023-05-21T08:21:34.471Z,28.15
2023-05-21T08:22:34.543Z,28.14
2023-05-21T08:23:34.525Z,28.14
2023-05-21T08:24:34.541Z,28.06
2023-05-21T08:25:34.634Z,28.09
2023-05-21T08:26:34.542Z,28.06
2023-05-21T08:27:34.548Z,28.07
2023-05-21T08:28:34.619Z,28.05
2023-05-21T08:29:34.561Z,28.03
2023-05-21T08:30:34.613Z,28.02
2023-05-21T08:31:34.702Z,27.98
2023-05-21T08:32:34.718Z,28.04
2023-05-21T08:33:34.764Z,28.00
2023-05-21T08:34:34.870Z,28.02
2023-05-21T08:35:35.116Z,28.01
2023-05-21T08:36:35.100Z,27.99
2023-05-21T08:37:34.994Z,28.02
2023-05-21T08:38:34.992Z,27.97
2023-05-21T08:39:34.967Z,27.97
2023-05-21T08:40:35.074Z,27.96
2023-05-21T08:41:34.989Z,27.99
2023-05-21T08:42:37.554Z,27.97
2023-05-21T08:43:34.999Z,28.04
2023-05-21T08:44:34.982Z,28.03
2023-05-21T08:45:35.297Z,27.98
2023-05-21T08:46:34.959Z,28.03
2023-05-21T08:47:35.037Z,28.02
2023-05-21T08:48:34.954Z,28.04
2023-05-21T08:49:34.984Z,28.05
2023-05-21T08:50:34.967Z,28.08
2023-05-21T08:51:34.934Z,28.06
2023-05-21T08:52:34.891Z,28.09
2023-05-21T08:53:35.053Z,28.03
2023-05-21T08:54:34.949Z,28.09
2023-05-21T08:55:35.121Z,28.05
2023-05-21T08:56:34.940Z,28.12
2023-05-21T08:57:34.898Z,28.10
2023-05-21T08:58:34.899Z,28.13
2023-05-21T08:59:34.883Z,28.13
2023-05-21T09:00:34.901Z,28.17
2023-05-21T09:01:34.928Z,28.12
2023-05-21T09:02:34.908Z,28.16
2023-05-21T09:03:34.880Z,28.17
2023-05-21T09:04:35.016Z,28.16
2023-05-21T09:05:35.088Z,28.19
2023-05-21T09:06:34.780Z,28.19
2023-05-21T09:07:34.784Z,28.20
2023-05-21T09:08:34.842Z,28.22
2023-05-21T09:09:34.786Z,28.20
2023-05-21T09:10:35.069Z,28.17
2023-05-21T09:11:34.798Z,28.19
2023-05-21T09:12:34.768Z,28.24
2023-05-21T09:13:35.838Z,28.24
2023-05-21T09:14:34.785Z,28.24
2023-05-21T09:15:34.927Z,28.27
2023-05-21T09:16:34.790Z,28.27
2023-05-21T09:17:34.764Z,28.25
2023-05-21T09:18:34.715Z,28.30
2023-05-21T09:19:34.890Z,28.29
2023-05-21T09:20:34.716Z,28.29
2023-05-21T09:21:34.847Z,28.26
2023-05-21T09:22:34.684Z,28.29
2023-05-21T09:23:34.702Z,28.33
2023-05-21T09:24:36.218Z,28.31
2023-05-21T09:25:34.712Z,28.34
2023-05-21T09:26:34.732Z,28.36
2023-05-21T09:27:34.702Z,28.37
2023-05-21T09:28:34.674Z,28.36
2023-05-21T09:29:34.726Z,28.37
2023-05-21T09:30:36.213Z,28.39
2023-05-21T09:31:34.736Z,28.39
2023-05-21T09:32:34.671Z,28.40
2023-05-21T09:33:34.665Z,28.39
2023-05-21T09:34:34.659Z,28.43
2023-05-21T09:35:35.676Z,28.41
2023-05-21T09:36:34.649Z,28.42
2023-05-21T09:37:34.644Z,28.41
2023-05-21T09:38:34.643Z,28.41
2023-05-21T09:39:34.607Z,28.43
2023-05-21T09:40:34.727Z,28.40
2023-05-21T09:41:34.595Z,28.46
2023-05-21T09:42:34.567Z,28.49
2023-05-21T09:43:34.585Z,28.46
2023-05-21T09:44:34.583Z,28.49
2023-05-21T09:45:34.732Z,28.46
2023-05-21T09:46:34.570Z,28.50
2023-05-21T09:47:34.532Z,28.53
2023-05-21T09:48:34.590Z,28.51
2023-05-21T09:49:34.520Z,28.50
2023-05-21T09:50:34.573Z,28.49
2023-05-21T09:51:34.527Z,28.52
2023-05-21T09:52:34.506Z,28.48
2023-05-21T09:53:34.509Z,28.54
2023-05-21T09:54:34.501Z,28.54
2023-05-21T09:55:34.506Z,28.57
2023-05-21T09:56:34.774Z,28.54
2023-05-21T09:57:34.461Z,28.57
2023-05-21T09:58:34.485Z,28.62
2023-05-21T09:59:34.489Z,28.64
2023-05-21T10:00:34.513Z,28.62
2023-05-21T10:01:34.464Z,28.61
2023-05-21T10:02:34.466Z,28.68
2023-05-21T10:03:34.765Z,28.65
2023-05-21T10:04:34.476Z,28.67
2023-05-21T10:05:34.419Z,28.66
2023-05-21T10:06:34.426Z,28.74
2023-05-21T10:07:34.372Z,28.69
2023-05-21T10:08:34.444Z,28.70
2023-05-21T10:09:34.505Z,28.73
2023-05-21T10:10:34.758Z,28.75
2023-05-21T10:11:34.677Z,28.71
2023-05-21T10:12:34.775Z,28.70
2023-05-21T10:13:34.864Z,28.73
2023-05-21T10:14:34.939Z,28.75
2023-05-21T10:15:34.944Z,28.76
2023-05-21T10:16:34.983Z,28.76
2023-05-21T10:17:35.080Z,28.76
2023-05-21T10:18:34.921Z,28.76
2023-05-21T10:19:35.125Z,28.75
2023-05-21T10:20:35.244Z,28.73
2023-05-21T10:21:35.094Z,28.75
2023-05-21T10:22:35.101Z,28.71
2023-05-21T10:23:35.098Z,28.76
2023-05-21T10:24:35.054Z,28.74
2023-05-21T10:25:35.121Z,28.71
2023-05-21T10:26:35.069Z,28.71
2023-05-21T10:27:35.106Z,28.68
2023-05-21T10:28:35.245Z,28.72
2023-05-21T10:29:35.254Z,28.76
2023-05-21T10:30:35.421Z,28.74
2023-05-21T10:31:35.216Z,28.75
2023-05-21T10:32:35.338Z,28.69
2023-05-21T10:33:35.381Z,28.71
2023-05-21T10:34:35.437Z,28.67
2023-05-21T10:35:35.656Z,28.67
2023-05-21T10:36:36.069Z,28.70
2023-05-21T10:37:35.633Z,28.73
2023-05-21T10:38:35.619Z,28.71
2023-05-21T10:39:35.632Z,28.70
2023-05-21T10:40:35.792Z,28.71
2023-05-21T10:41:35.585Z,28.71
2023-05-21T10:42:35.697Z,28.70
2023-05-21T10:43:35.734Z,28.67
2023-05-21T10:44:35.866Z,28.70
2023-05-21T10:45:36.141Z,28.65
2023-05-21T10:46:36.030Z,28.67
2023-05-21T10:47:36.187Z,28.72
2023-05-21T10:48:36.142Z,28.65
2023-05-21T10:49:36.098Z,28.71
2023-05-21T10:50:36.312Z,28.71
2023-05-21T10:51:36.124Z,28.71
2023-05-21T10:52:36.179Z,28.72
2023-05-21T10:53:36.287Z,28.74
2023-05-21T10:54:36.383Z,28.74
2023-05-21T10:55:36.424Z,28.78
2023-05-21T10:56:36.418Z,28.74
2023-05-21T10:57:36.414Z,28.77
2023-05-21T10:58:36.375Z,28.79
2023-05-21T10:59:36.452Z,28.75
2023-05-21T11:00:37.470Z,28.81
2023-05-21T11:01:36.433Z,28.78
2023-05-21T11:02:36.539Z,28.75
2023-05-21T11:03:37.925Z,28.81
2023-05-21T11:04:36.570Z,28.78
2023-05-21T11:05:36.687Z,28.75
2023-05-21T11:06:36.510Z,28.79
2023-05-21T11:07:36.584Z,28.79
2023-05-21T11:08:37.124Z,28.82
2023-05-21T11:09:36.637Z,28.79
2023-05-21T11:10:36.949Z,28.79
2023-05-21T11:11:36.728Z,28.78
2023-05-21T11:12:36.669Z,28.78
2023-05-21T11:13:36.686Z,28.79
2023-05-21T11:14:36.762Z,28.75
2023-05-21T11:15:36.686Z,28.78
2023-05-21T11:16:36.805Z,28.78
2023-05-21T11:17:36.883Z,28.79
2023-05-21T11:18:36.796Z,28.75
2023-05-21T11:19:36.860Z,28.79
2023-05-21T11:20:36.947Z,28.75
2023-05-21T11:21:36.897Z,28.77
2023-05-21T11:22:36.815Z,28.77
2023-05-21T11:23:36.853Z,28.78
2023-05-21T11:24:36.861Z,28.81
2023-05-21T11:25:36.850Z,28.74
2023-05-21T11:26:36.877Z,28.78
2023-05-21T11:27:36.871Z,28.77
2023-05-21T11:28:36.986Z,28.74
2023-05-21T11:29:37.042Z,28.71
2023-05-21T11:30:38.379Z,28.73
2023-05-21T11:31:37.145Z,28.70
2023-05-21T11:32:37.074Z,28.75
2023-05-21T11:33:37.038Z,28.78
2023-05-21T11:34:37.022Z,28.79
2023-05-21T11:35:37.039Z,28.77
2023-05-21T11:36:37.026Z,28.75
2023-05-21T11:37:37.050Z,28.77
2023-05-21T11:38:37.004Z,28.81
2023-05-21T11:39:37.016Z,28.75
2023-05-21T11:40:37.282Z,28.75
2023-05-21T11:41:37.022Z,28.79
2023-05-21T11:42:36.988Z,28.77
2023-05-21T11:43:36.989Z,28.78
2023-05-21T11:44:36.959Z,28.74
2023-05-21T11:45:36.947Z,28.77
2023-05-21T11:46:36.998Z,28.78
2023-05-21T11:47:37.012Z,28.75
2023-05-21T11:48:36.909Z,28.78
2023-05-21T11:49:36.909Z,28.77
2023-05-21T11:50:37.122Z,28.77
2023-05-21T11:51:36.930Z,28.74
2023-05-21T11:52:36.899Z,28.74
2023-05-21T11:53:36.906Z,28.77
2023-05-21T11:54:36.920Z,28.73
2023-05-21T11:55:36.911Z,28.76
2023-05-21T11:56:36.942Z,28.72
2023-05-21T11:57:36.864Z,28.78
2023-05-21T11:58:36.878Z,28.72
2023-05-21T11:59:36.907Z,28.79
2023-05-21T12:00:37.360Z,28.76
2023-05-21T12:01:36.867Z,28.78
2023-05-21T12:02:36.906Z,28.81
2023-05-21T12:03:37.026Z,28.80
2023-05-21T12:04:36.809Z,28.83
2023-05-21T12:05:36.840Z,28.85
2023-05-21T12:06:36.824Z,28.82
2023-05-21T12:07:36.789Z,28.84
2023-05-21T12:08:36.801Z,28.82
2023-05-21T12:09:36.804Z,28.79
2023-05-21T12:10:37.086Z,28.81
2023-05-21T12:11:36.741Z,28.79
2023-05-21T12:12:53.351Z,28.82
2023-05-21T12:13:37.766Z,28.82
2023-05-21T12:14:36.802Z,28.79
2023-05-21T12:15:36.748Z,28.81
2023-05-21T12:16:36.787Z,28.78
2023-05-21T12:17:36.730Z,28.81
2023-05-21T12:18:36.782Z,28.82
2023-05-21T12:19:36.713Z,28.78
2023-05-21T12:20:36.928Z,28.75
2023-05-21T12:21:36.807Z,28.74
2023-05-21T12:22:36.757Z,28.76
2023-05-21T12:23:36.699Z,28.75
2023-05-21T12:24:36.696Z,28.70
2023-05-21T12:25:36.710Z,28.70
2023-05-21T12:26:36.654Z,28.71
2023-05-21T12:27:36.728Z,28.72
2023-05-21T12:28:36.659Z,28.68
2023-05-21T12:29:36.696Z,28.66
2023-05-21T12:30:36.857Z,28.72
2023-05-21T12:31:36.674Z,28.66
2023-05-21T12:32:36.670Z,28.71
2023-05-21T12:33:36.620Z,28.67
2023-05-21T12:34:36.602Z,28.70
2023-05-21T12:35:36.636Z,28.70
2023-05-21T12:36:36.718Z,28.71
2023-05-21T12:37:36.691Z,28.67
2023-05-21T12:38:36.700Z,28.71
2023-05-21T12:39:36.709Z,28.67
2023-05-21T12:40:36.876Z,28.66
2023-05-21T12:41:36.655Z,28.65
2023-05-21T12:42:36.677Z,28.69
2023-05-21T12:43:36.661Z,28.68
2023-05-21T12:44:37.046Z,28.69
2023-05-21T12:45:36.767Z,28.67
2023-05-21T12:46:36.870Z,28.67
2023-05-21T12:47:36.825Z,28.67
2023-05-21T12:48:36.774Z,28.70
2023-05-21T12:49:36.765Z,28.70
2023-05-21T12:50:36.997Z,28.74
2023-05-21T12:51:36.793Z,28.67
2023-05-21T12:52:36.831Z,28.72
2023-05-21T12:53:36.919Z,28.70